Decoded Metar for K0CO (BERTHOUD PASS in CO, USA) (IATA:0CO) | Meteo·Mobile Aviation Weather
aviador You're here:

K0CO Decoded Metar

BERTHOUD PASS in CO, USA
Report Time2018-09-22 14:48:00
UTC Time2018-09-22 14:55:12
Flight Rules vfr VFR
Wind300° at 27 Gusting to 34 kt
W.Rank300° ranks 1
Current wind is above 300° avg. (21.7)
Visibility9999 m
Phenomena:N/A
Clouds:N/A
Expected CloudBase > 3,200 ft AGL from Temp-Dew spread
CeilingNone
Temp03°C (ISA +15)
Dew Point-5°C (56% RH)
AAT-9.3°C
QNH1037 hPa
Density Alt14,478 ft
Elevation13,494 ft
Report Wrong Elevation
Raw Report
K0CO 221448Z AUTO 30027G34KT 10SM CLR 03/M05 A3063 RMK AO2=

Extra information for K0CO:More info

Metar Taf Metar & Taf Last 4 Metars F.Rules Stats Wind Profile Meteogram Temp Stats Airport Information Weather charts Add Link Nearby VenuesMetar ALERT Operation Metar Decoded Social comments

AIRNAV info for K0CO